sensor_id;sensor_type;location;lat;lon;timestamp;P1;durP1;ratioP1;P2;durP2;ratioP2
81312;SDS011;70780;52.722;5.724;2023-08-08T11:02:49;1.50;;;0.32;;
81312;SDS011;70780;52.722;5.724;2023-08-08T11:05:19;1.33;;;0.30;;
81312;SDS011;70780;52.722;5.724;2023-08-08T11:07:50;0.82;;;0.30;;
81312;SDS011;70780;52.722;5.724;2023-08-08T11:10:20;1.48;;;0.40;;
81312;SDS011;70780;52.722;5.724;2023-08-08T11:12:58;3.63;;;0.63;;
81312;SDS011;70780;52.722;5.724;2023-08-08T11:18:00;2.25;;;0.30;;
81312;SDS011;70780;52.722;5.724;2023-08-08T11:23:00;2.53;;;0.40;;
81312;SDS011;70780;52.722;5.724;2023-08-08T11:25:31;1.08;;;0.30;;
81312;SDS011;70780;52.722;5.724;2023-08-08T11:28:00;1.95;;;0.57;;
81312;SDS011;70780;52.722;5.724;2023-08-08T11:30:31;1.77;;;0.40;;
81312;SDS011;70780;52.722;5.724;2023-08-08T11:33:05;1.58;;;0.40;;
81312;SDS011;70780;52.722;5.724;2023-08-08T11:35:35;1.30;;;0.40;;
81312;SDS011;70780;52.722;5.724;2023-08-08T11:38:04;0.93;;;0.40;;
81312;SDS011;70780;52.722;5.724;2023-08-08T12:05:59;2.03;;;0.70;;
81312;SDS011;70780;52.722;5.724;2023-08-08T12:08:30;2.45;;;0.95;;
81312;SDS011;70780;52.722;5.724;2023-08-08T12:11:00;1.88;;;0.70;;
81312;SDS011;70780;52.722;5.724;2023-08-08T12:13:31;4.47;;;0.70;;
81312;SDS011;70780;52.722;5.724;2023-08-08T12:16:03;2.30;;;0.63;;
81312;SDS011;70780;52.722;5.724;2023-08-08T12:18:35;3.17;;;0.60;;
81312;SDS011;70780;52.722;5.724;2023-08-08T12:21:09;4.00;;;0.55;;
81312;SDS011;70780;52.722;5.724;2023-08-08T12:23:38;3.60;;;1.10;;
81312;SDS011;70780;52.722;5.724;2023-08-08T12:26:07;3.65;;;0.98;;
81312;SDS011;70780;52.722;5.724;2023-08-08T12:28:36;3.53;;;0.60;;
81312;SDS011;70780;52.722;5.724;2023-08-08T12:31:06;2.25;;;0.70;;
81312;SDS011;70780;52.722;5.724;2023-08-08T12:33:35;2.90;;;0.65;;
81312;SDS011;70780;52.722;5.724;2023-08-08T12:36:05;1.88;;;0.50;;
81312;SDS011;70780;52.722;5.724;2023-08-08T12:38:37;3.13;;;0.52;;
81312;SDS011;70780;52.722;5.724;2023-08-08T12:41:06;2.45;;;0.45;;
81312;SDS011;70780;52.722;5.724;2023-08-08T12:43:36;2.08;;;0.60;;
81312;SDS011;70780;52.722;5.724;2023-08-08T12:46:06;2.47;;;0.73;;
81312;SDS011;70780;52.722;5.724;2023-08-08T12:48:35;2.67;;;0.70;;
81312;SDS011;70780;52.722;5.724;2023-08-08T12:51:04;3.45;;;0.60;;
81312;SDS011;70780;52.722;5.724;2023-08-08T12:53:37;1.13;;;0.60;;
81312;SDS011;70780;52.722;5.724;2023-08-08T12:56:06;2.10;;;0.55;;
81312;SDS011;70780;52.722;5.724;2023-08-08T12:58:35;1.73;;;0.80;;
81312;SDS011;70780;52.722;5.724;2023-08-08T13:01:06;2.95;;;0.70;;
81312;SDS011;70780;52.722;5.724;2023-08-08T13:03:36;2.38;;;0.93;;
81312;SDS011;70780;52.722;5.724;2023-08-08T13:06:05;2.40;;;0.70;;
81312;SDS011;70780;52.722;5.724;2023-08-08T13:08:40;1.90;;;0.57;;
81312;SDS011;70780;52.722;5.724;2023-08-08T13:11:09;1.50;;;0.60;;
81312;SDS011;70780;52.722;5.724;2023-08-08T13:13:38;1.65;;;0.70;;
81312;SDS011;70780;52.722;5.724;2023-08-08T13:16:08;1.08;;;0.40;;
81312;SDS011;70780;52.722;5.724;2023-08-08T13:18:37;3.22;;;0.65;;
81312;SDS011;70780;52.722;5.724;2023-08-08T13:21:06;1.13;;;0.50;;
81312;SDS011;70780;52.722;5.724;2023-08-08T13:23:36;2.67;;;0.50;;
81312;SDS011;70780;52.722;5.724;2023-08-08T13:26:08;1.35;;;0.47;;
81312;SDS011;70780;52.722;5.724;2023-08-08T13:28:37;2.00;;;0.50;;
81312;SDS011;70780;52.722;5.724;2023-08-08T13:31:07;2.30;;;0.43;;
81312;SDS011;70780;52.722;5.724;2023-08-08T13:33:36;1.98;;;0.43;;
81312;SDS011;70780;52.722;5.724;2023-08-08T13:36:06;2.10;;;0.73;;
81312;SDS011;70780;52.722;5.724;2023-08-08T13:38:35;1.67;;;0.70;;
81312;SDS011;70780;52.722;5.724;2023-08-08T13:41:07;1.38;;;0.40;;
81312;SDS011;70780;52.722;5.724;2023-08-08T13:43:37;1.50;;;0.52;;
81312;SDS011;70780;52.722;5.724;2023-08-08T13:46:06;1.40;;;0.30;;
81312;SDS011;70780;52.722;5.724;2023-08-08T13:48:36;2.33;;;0.60;;
81312;SDS011;70780;52.722;5.724;2023-08-08T13:51:05;1.83;;;0.55;;
81312;SDS011;70780;52.722;5.724;2023-08-08T13:53:35;2.03;;;0.50;;
81312;SDS011;70780;52.722;5.724;2023-08-08T13:56:04;1.70;;;0.50;;
81312;SDS011;70780;52.722;5.724;2023-08-08T13:58:36;2.30;;;0.50;;
81312;SDS011;70780;52.722;5.724;2023-08-08T14:01:06;1.63;;;0.50;;
81312;SDS011;70780;52.722;5.724;2023-08-08T14:03:35;1.45;;;0.45;;
81312;SDS011;70780;52.722;5.724;2023-08-08T14:06:05;0.77;;;0.30;;
81312;SDS011;70780;52.722;5.724;2023-08-08T14:08:34;2.03;;;0.73;;
81312;SDS011;70780;52.722;5.724;2023-08-08T14:11:03;3.65;;;0.63;;
81312;SDS011;70780;52.722;5.724;2023-08-08T14:13:33;1.35;;;0.35;;
81312;SDS011;70780;52.722;5.724;2023-08-08T14:16:06;0.73;;;0.40;;
81312;SDS011;70780;52.722;5.724;2023-08-08T14:18:36;1.50;;;0.57;;
81312;SDS011;70780;52.722;5.724;2023-08-08T14:21:05;2.13;;;0.68;;
81312;SDS011;70780;52.722;5.724;2023-08-08T14:23:34;2.53;;;0.60;;
81312;SDS011;70780;52.722;5.724;2023-08-08T14:26:04;1.15;;;0.40;;
81312;SDS011;70780;52.722;5.724;2023-08-08T14:28:33;0.88;;;0.47;;
81312;SDS011;70780;52.722;5.724;2023-08-08T14:31:02;1.27;;;0.52;;
81312;SDS011;70780;52.722;5.724;2023-08-08T14:33:34;1.70;;;0.50;;
81312;SDS011;70780;52.722;5.724;2023-08-08T14:36:04;1.55;;;0.50;;
81312;SDS011;70780;52.722;5.724;2023-08-08T14:38:34;1.33;;;0.40;;
81312;SDS011;70780;52.722;5.724;2023-08-08T14:41:04;1.95;;;0.55;;
81312;SDS011;70780;52.722;5.724;2023-08-08T14:43:34;1.45;;;0.60;;
81312;SDS011;70780;52.722;5.724;2023-08-08T14:46:06;1.83;;;0.47;;
81312;SDS011;70780;52.722;5.724;2023-08-08T14:48:35;2.15;;;0.43;;
81312;SDS011;70780;52.722;5.724;2023-08-08T14:51:04;1.38;;;0.52;;
81312;SDS011;70780;52.722;5.724;2023-08-08T14:53:34;1.65;;;0.47;;
81312;SDS011;70780;52.722;5.724;2023-08-08T14:56:03;1.73;;;0.60;;
81312;SDS011;70780;52.722;5.724;2023-08-08T14:58:32;1.25;;;0.43;;
81312;SDS011;70780;52.722;5.724;2023-08-08T15:01:02;2.25;;;0.43;;
81312;SDS011;70780;52.722;5.724;2023-08-08T15:03:34;1.45;;;0.50;;
81312;SDS011;70780;52.722;5.724;2023-08-08T15:06:04;1.50;;;0.50;;
81312;SDS011;70780;52.722;5.724;2023-08-08T15:08:34;1.17;;;0.50;;
81312;SDS011;70780;52.722;5.724;2023-08-08T15:11:03;2.00;;;0.30;;
81312;SDS011;70780;52.722;5.724;2023-08-08T15:13:33;1.38;;;0.40;;
81312;SDS011;70780;52.722;5.724;2023-08-08T15:16:02;0.88;;;0.40;;
81312;SDS011;70780;52.722;5.724;2023-08-08T15:18:34;1.30;;;0.73;;
81312;SDS011;70780;52.722;5.724;2023-08-08T15:21:04;1.50;;;0.50;;
81312;SDS011;70780;52.722;5.724;2023-08-08T15:23:33;2.17;;;0.47;;
81312;SDS011;70780;52.722;5.724;2023-08-08T15:26:02;1.75;;;0.68;;
81312;SDS011;70780;52.722;5.724;2023-08-08T15:28:32;1.58;;;0.40;;
81312;SDS011;70780;52.722;5.724;2023-08-08T15:31:01;1.30;;;0.40;;
81312;SDS011;70780;52.722;5.724;2023-08-08T15:33:30;1.80;;;0.50;;
81312;SDS011;70780;52.722;5.724;2023-08-08T15:36:02;1.88;;;0.40;;
81312;SDS011;70780;52.722;5.724;2023-08-08T15:38:32;1.08;;;0.50;;
81312;SDS011;70780;52.722;5.724;2023-08-08T15:41:02;1.23;;;0.70;;
81312;SDS011;70780;52.722;5.724;2023-08-08T15:43:31;1.58;;;0.30;;
81312;SDS011;70780;52.722;5.724;2023-08-08T15:46:00;1.92;;;0.52;;
81312;SDS011;70780;52.722;5.724;2023-08-08T15:48:29;2.22;;;0.63;;
81312;SDS011;70780;52.722;5.724;2023-08-08T15:50:59;5.50;;;0.50;;
81312;SDS011;70780;52.722;5.724;2023-08-08T15:53:31;6.88;;;0.80;;
81312;SDS011;70780;52.722;5.724;2023-08-08T15:56:01;1.90;;;0.63;;
81312;SDS011;70780;52.722;5.724;2023-08-08T15:58:32;2.55;;;0.50;;
81312;SDS011;70780;52.722;5.724;2023-08-08T16:21:52;1.40;;;0.52;;
81312;SDS011;70780;52.722;5.724;2023-08-08T16:24:21;1.88;;;0.40;;
81312;SDS011;70780;52.722;5.724;2023-08-08T16:26:50;1.23;;;0.35;;
81312;SDS011;70780;52.722;5.724;2023-08-08T16:29:20;1.20;;;0.47;;
81312;SDS011;70780;52.722;5.724;2023-08-08T16:31:49;1.25;;;0.47;;
81312;SDS011;70780;52.722;5.724;2023-08-08T16:34:19;1.63;;;0.40;;
81312;SDS011;70780;52.722;5.724;2023-08-08T16:36:48;1.85;;;0.50;;
81312;SDS011;70780;52.722;5.724;2023-08-08T16:39:20;2.75;;;0.50;;
81312;SDS011;70780;52.722;5.724;2023-08-08T16:41:49;1.20;;;0.40;;
81312;SDS011;70780;52.722;5.724;2023-08-08T16:44:19;2.53;;;0.45;;
81312;SDS011;70780;52.722;5.724;2023-08-08T16:46:49;0.57;;;0.28;;
81312;SDS011;70780;52.722;5.724;2023-08-08T16:49:18;5.75;;;0.55;;
81312;SDS011;70780;52.722;5.724;2023-08-08T16:51:48;1.48;;;0.30;;
81312;SDS011;70780;52.722;5.724;2023-08-08T16:54:20;2.90;;;0.50;;
81312;SDS011;70780;52.722;5.724;2023-08-08T16:56:49;1.70;;;0.25;;
81312;SDS011;70780;52.722;5.724;2023-08-08T16:59:18;2.65;;;0.68;;
81312;SDS011;70780;52.722;5.724;2023-08-08T17:01:48;2.35;;;0.63;;
81312;SDS011;70780;52.722;5.724;2023-08-08T17:04:17;1.65;;;0.40;;
81312;SDS011;70780;52.722;5.724;2023-08-08T17:06:47;1.05;;;0.43;;
81312;SDS011;70780;52.722;5.724;2023-08-08T17:09:16;2.80;;;0.50;;
81312;SDS011;70780;52.722;5.724;2023-08-08T17:11:48;2.17;;;0.30;;
81312;SDS011;70780;52.722;5.724;2023-08-08T17:14:18;1.08;;;0.30;;
81312;SDS011;70780;52.722;5.724;2023-08-08T17:16:47;1.80;;;0.38;;
81312;SDS011;70780;52.722;5.724;2023-08-08T17:19:16;1.10;;;0.40;;
81312;SDS011;70780;52.722;5.724;2023-08-08T17:21:46;4.63;;;0.50;;
81312;SDS011;70780;52.722;5.724;2023-08-08T17:24:15;0.88;;;0.28;;
81312;SDS011;70780;52.722;5.724;2023-08-08T17:26:44;2.53;;;0.40;;
81312;SDS011;70780;52.722;5.724;2023-08-08T17:29:16;1.73;;;0.40;;
81312;SDS011;70780;52.722;5.724;2023-08-08T17:31:46;0.77;;;0.30;;
81312;SDS011;70780;52.722;5.724;2023-08-08T17:34:15;2.80;;;0.60;;
81312;SDS011;70780;52.722;5.724;2023-08-08T17:36:45;1.60;;;0.50;;
81312;SDS011;70780;52.722;5.724;2023-08-08T17:39:15;1.98;;;0.52;;
81312;SDS011;70780;52.722;5.724;2023-08-08T17:41:44;2.42;;;0.40;;
81312;SDS011;70780;52.722;5.724;2023-08-08T17:44:17;1.30;;;0.60;;
81312;SDS011;70780;52.722;5.724;2023-08-08T17:46:46;1.25;;;0.20;;
81312;SDS011;70780;52.722;5.724;2023-08-08T17:49:15;0.90;;;0.20;;
81312;SDS011;70780;52.722;5.724;2023-08-08T17:51:45;1.50;;;0.50;;
81312;SDS011;70780;52.722;5.724;2023-08-08T17:54:14;1.08;;;0.40;;
81312;SDS011;70780;52.722;5.724;2023-08-08T17:56:43;1.23;;;0.40;;
81312;SDS011;70780;52.722;5.724;2023-08-08T17:59:15;1.85;;;0.50;;
81312;SDS011;70780;52.722;5.724;2023-08-08T18:01:45;2.53;;;0.52;;
81312;SDS011;70780;52.722;5.724;2023-08-08T18:04:14;2.15;;;0.60;;
81312;SDS011;70780;52.722;5.724;2023-08-08T18:06:43;4.18;;;0.98;;
81312;SDS011;70780;52.722;5.724;2023-08-08T18:09:13;3.63;;;1.85;;
81312;SDS011;70780;52.722;5.724;2023-08-08T18:11:42;5.80;;;3.97;;
81312;SDS011;70780;52.722;5.724;2023-08-08T18:14:11;6.20;;;2.95;;
81312;SDS011;70780;52.722;5.724;2023-08-08T18:16:43;4.18;;;2.15;;
81312;SDS011;70780;52.722;5.724;2023-08-08T18:19:13;3.78;;;1.92;;
81312;SDS011;70780;52.722;5.724;2023-08-08T18:21:44;3.53;;;2.20;;
81312;SDS011;70780;52.722;5.724;2023-08-08T18:24:14;4.40;;;1.77;;
81312;SDS011;70780;52.722;5.724;2023-08-08T18:26:43;3.58;;;1.80;;
81312;SDS011;70780;52.722;5.724;2023-08-08T18:29:12;4.50;;;2.80;;
81312;SDS011;70780;52.722;5.724;2023-08-08T18:31:45;16.23;;;10.38;;
81312;SDS011;70780;52.722;5.724;2023-08-08T18:34:14;12.00;;;8.07;;
81312;SDS011;70780;52.722;5.724;2023-08-08T18:36:44;11.27;;;7.45;;
81312;SDS011;70780;52.722;5.724;2023-08-08T18:39:13;10.30;;;6.20;;
81312;SDS011;70780;52.722;5.724;2023-08-08T18:41:42;9.48;;;5.63;;
81312;SDS011;70780;52.722;5.724;2023-08-08T18:44:11;10.65;;;5.13;;
81312;SDS011;70780;52.722;5.724;2023-08-08T18:46:41;6.88;;;4.25;;
81312;SDS011;70780;52.722;5.724;2023-08-08T18:49:13;8.82;;;4.50;;
81312;SDS011;70780;52.722;5.724;2023-08-08T18:51:43;6.32;;;3.97;;
81312;SDS011;70780;52.722;5.724;2023-08-08T18:54:12;5.88;;;4.05;;
81312;SDS011;70780;52.722;5.724;2023-08-08T18:56:41;5.53;;;3.35;;
81312;SDS011;70780;52.722;5.724;2023-08-08T18:59:11;7.50;;;3.63;;
81312;SDS011;70780;52.722;5.724;2023-08-08T19:01:40;7.40;;;3.50;;
81312;SDS011;70780;52.722;5.724;2023-08-08T19:04:10;8.20;;;3.40;;
81312;SDS011;70780;52.722;5.724;2023-08-08T19:06:41;4.93;;;3.00;;
81312;SDS011;70780;52.722;5.724;2023-08-08T19:09:11;6.10;;;3.10;;
81312;SDS011;70780;52.722;5.724;2023-08-08T19:11:43;6.40;;;2.70;;
81312;SDS011;70780;52.722;5.724;2023-08-08T19:14:12;4.82;;;2.42;;
81312;SDS011;70780;52.722;5.724;2023-08-08T19:16:41;6.43;;;3.15;;
81312;SDS011;70780;52.722;5.724;2023-08-08T19:19:11;4.45;;;2.40;;
81312;SDS011;70780;52.722;5.724;2023-08-08T19:21:43;4.47;;;2.40;;
81312;SDS011;70780;52.722;5.724;2023-08-08T19:24:12;4.32;;;2.13;;
81312;SDS011;70780;52.722;5.724;2023-08-08T19:26:42;4.88;;;2.67;;
81312;SDS011;70780;52.722;5.724;2023-08-08T19:29:11;4.32;;;2.03;;
81312;SDS011;70780;52.722;5.724;2023-08-08T19:31:40;3.58;;;2.05;;
81312;SDS011;70780;52.722;5.724;2023-08-08T19:34:10;4.63;;;2.60;;
81312;SDS011;70780;52.722;5.724;2023-08-08T19:36:39;4.18;;;2.35;;
81312;SDS011;70780;52.722;5.724;2023-08-08T19:39:11;3.08;;;1.75;;
81312;SDS011;70780;52.722;5.724;2023-08-08T19:41:40;3.42;;;1.95;;
81312;SDS011;70780;52.722;5.724;2023-08-08T19:44:10;3.03;;;1.70;;
81312;SDS011;70780;52.722;5.724;2023-08-08T19:46:39;5.03;;;1.45;;
81312;SDS011;70780;52.722;5.724;2023-08-08T19:49:09;3.10;;;1.67;;
81312;SDS011;70780;52.722;5.724;2023-08-08T19:51:38;2.63;;;1.55;;
81312;SDS011;70780;52.722;5.724;2023-08-08T19:54:08;2.10;;;1.20;;
81312;SDS011;70780;52.722;5.724;2023-08-08T19:56:40;2.83;;;1.85;;
81312;SDS011;70780;52.722;5.724;2023-08-08T19:59:10;2.58;;;1.50;;
